Time;durP1;ratioP1;P1;durP2;ratioP2;P2;SDS_P1;SDS_P2;PMS_P1;PMS_P2;Temp;Humidity;BMP_temperature;BMP_pressure;BME280_temperature;BME280_humidity;BME280_pressure;Samples;Min_cycle;Max_cycle;Signal;HPM_P1;HPM_P2
2023/04/06 00:00:49;;;;;;;8.97;8.77;;;1.00;99.90;;;;;;5066319;28;20262;-81
2023/04/06 00:03:18;;;;;;;8.67;8.47;;;1.00;99.90;;;;;;5066426;28;20235;-81
2023/04/06 00:05:48;;;;;;;8.50;8.30;;;1.00;99.90;;;;;;5065935;28;20289;-81
2023/04/06 00:08:16;;;;;;;9.00;8.80;;;1.00;99.90;;;;;;5066178;28;20285;-81
2023/04/06 00:10:49;;;;;;;8.80;8.60;;;1.00;99.90;;;;;;5065615;28;20227;-80
2023/04/06 00:13:16;;;;;;;8.90;8.70;;;1.00;99.90;;;;;;5065896;28;20241;-81
2023/04/06 00:15:46;;;;;;;8.93;8.73;;;1.00;99.90;;;;;;5065824;28;20223;-81
2023/04/06 00:18:14;;;;;;;8.80;8.60;;;1.00;99.90;;;;;;5065083;28;20261;-81
2023/04/06 00:20:46;;;;;;;8.70;8.50;;;1.00;99.90;;;;;;5065831;28;20260;-81
2023/04/06 00:23:14;;;;;;;8.87;8.67;;;1.00;99.90;;;;;;5065569;28;20238;-81
2023/04/06 00:25:44;;;;;;;8.47;8.27;;;1.00;99.90;;;;;;5068006;28;20239;-80
2023/04/06 00:28:25;;;;;;;8.60;8.40;;;1.00;99.90;;;;;;5065343;28;20234;-80
2023/04/06 00:30:55;;;;;;;8.80;8.60;;;0.90;99.90;;;;;;5062758;28;20287;-81
2023/04/06 00:33:23;;;;;;;8.63;8.43;;;0.90;99.90;;;;;;5062874;28;20227;-81
2023/04/06 00:35:50;;;;;;;8.43;8.23;;;0.90;99.90;;;;;;5063172;28;20349;-81
2023/04/06 00:38:20;;;;;;;8.90;8.70;;;0.80;99.90;;;;;;5063216;28;20243;-81
2023/04/06 00:40:50;;;;;;;8.70;8.50;;;0.80;99.90;;;;;;5063506;28;20231;-81
2023/04/06 00:43:20;;;;;;;9.20;8.90;;;0.80;99.90;;;;;;5064135;28;20226;-81
2023/04/06 00:45:48;;;;;;;9.03;8.83;;;0.80;99.90;;;;;;5063125;28;20250;-81
2023/04/06 00:48:17;;;;;;;9.03;8.83;;;0.80;99.90;;;;;;5063939;28;20310;-81
2023/04/06 00:50:46;;;;;;;9.30;9.00;;;0.80;99.90;;;;;;5065065;28;20948;-80
2023/04/06 00:53:15;;;;;;;9.20;8.90;;;0.80;99.90;;;;;;5064070;28;20234;-81
2023/04/06 00:55:45;;;;;;;9.30;9.00;;;0.80;99.90;;;;;;5064186;28;20234;-80
2023/04/06 00:58:15;;;;;;;9.30;9.00;;;0.70;99.90;;;;;;5064461;28;20286;-81
2023/04/06 01:00:45;;;;;;;9.20;8.90;;;0.70;99.90;;;;;;5064406;28;20231;-81
2023/04/06 01:03:13;;;;;;;9.40;9.10;;;0.70;99.90;;;;;;5073098;28;20222;-81
2023/04/06 01:05:43;;;;;;;9.37;9.07;;;0.70;99.90;;;;;;5071851;28;20239;-81
2023/04/06 01:08:13;;;;;;;9.17;8.87;;;0.70;99.90;;;;;;5068334;28;20230;-81
2023/04/06 01:10:42;;;;;;;9.53;9.23;;;0.70;99.90;;;;;;5067289;28;20226;-80
2023/04/06 01:13:10;;;;;;;9.23;8.93;;;0.60;99.90;;;;;;5066812;28;20246;-81
2023/04/06 01:15:41;;;;;;;9.53;9.23;;;0.60;99.90;;;;;;5066521;28;20235;-81
2023/04/06 01:18:12;;;;;;;9.13;8.90;;;0.60;99.90;;;;;;5065984;28;20223;-81
2023/04/06 01:20:40;;;;;;;9.20;8.90;;;0.60;99.90;;;;;;5067342;28;20289;-81
2023/04/06 01:23:12;;;;;;;8.80;8.60;;;0.50;99.90;;;;;;5065476;28;20303;-81
2023/04/06 01:25:39;;;;;;;8.97;8.77;;;0.50;99.90;;;;;;5065205;28;20239;-82
2023/04/06 01:28:08;;;;;;;9.23;8.93;;;0.40;99.90;;;;;;5065530;28;20231;-82
2023/04/06 01:30:38;;;;;;;9.57;9.27;;;0.40;99.90;;;;;;5066346;28;20235;-82
2023/04/06 01:33:07;;;;;;;8.80;8.60;;;0.40;99.90;;;;;;5066756;28;20313;-81
2023/04/06 01:35:36;;;;;;;9.17;8.87;;;0.40;99.90;;;;;;5066343;28;20234;-82
2023/04/06 01:38:04;;;;;;;9.20;8.90;;;0.30;99.90;;;;;;5067566;28;20234;-82
2023/04/06 01:40:34;;;;;;;8.90;8.70;;;0.30;99.90;;;;;;5067455;28;20222;-82
2023/04/06 01:43:06;;;;;;;9.20;8.90;;;0.20;99.90;;;;;;5065895;28;20234;-81
2023/04/06 01:45:35;;;;;;;9.40;9.10;;;0.20;99.90;;;;;;5066550;28;20242;-82
2023/04/06 01:48:04;;;;;;;9.03;8.80;;;0.20;99.90;;;;;;5067924;28;20237;-81
2023/04/06 01:50:33;;;;;;;9.20;8.90;;;0.10;99.90;;;;;;5070258;28;20230;-82
2023/04/06 01:53:04;;;;;;;9.20;8.90;;;0.10;99.90;;;;;;5069445;28;20226;-82
2023/04/06 01:55:41;;;;;;;8.90;8.70;;;0.10;99.90;;;;;;5077451;28;20303;-80
2023/04/06 01:58:12;;;;;;;8.90;8.70;;;0.10;99.90;;;;;;5079026;28;20289;-81
2023/04/06 02:00:42;;;;;;;8.90;8.70;;;0.10;99.90;;;;;;5072309;27;20203;-81
2023/04/06 02:03:11;;;;;;;8.80;8.60;;;0.10;99.90;;;;;;5076779;28;20231;-82
2023/04/06 02:05:41;;;;;;;8.97;8.77;;;0.10;99.90;;;;;;5071308;28;20242;-82
2023/04/06 02:08:10;;;;;;;8.90;8.70;;;0.10;99.90;;;;;;5069459;28;20219;-82
2023/04/06 02:10:42;;;;;;;9.17;8.87;;;0.10;99.90;;;;;;5075290;28;20215;-82
2023/04/06 02:13:09;;;;;;;8.90;8.70;;;0.10;99.90;;;;;;5069681;28;20269;-81
2023/04/06 02:15:39;;;;;;;8.90;8.70;;;0.10;99.90;;;;;;5073494;28;20238;-82
2023/04/06 02:18:08;;;;;;;8.80;8.60;;;0.00;99.90;;;;;;5063164;28;20236;-82
2023/04/06 02:20:36;;;;;;;8.80;8.60;;;0.00;99.90;;;;;;5066230;28;20234;-82
2023/04/06 02:23:07;;;;;;;8.90;8.70;;;0.00;99.90;;;;;;5064591;28;20297;-82
2023/04/06 02:25:35;;;;;;;9.00;8.80;;;0.00;99.90;;;;;;5064111;28;20235;-82
2023/04/06 02:28:11;;;;;;;8.77;8.57;;;-0.10;99.90;;;;;;5064114;28;20233;-82
2023/04/06 02:30:38;;;;;;;8.90;8.70;;;0.00;99.90;;;;;;5064397;28;20211;-82
2023/04/06 02:33:06;;;;;;;9.20;8.90;;;0.00;99.90;;;;;;5065082;28;20261;-82
2023/04/06 02:35:34;;;;;;;9.20;8.90;;;0.00;99.90;;;;;;5064691;28;20304;-82
2023/04/06 02:38:01;;;;;;;9.03;8.83;;;0.10;99.90;;;;;;5064104;28;20261;-81
2023/04/06 02:40:30;;;;;;;9.00;8.80;;;0.10;99.90;;;;;;5064251;28;20231;-82
2023/04/06 02:42:59;;;;;;;9.00;8.80;;;0.10;99.90;;;;;;5064197;28;20227;-83
2023/04/06 02:45:33;;;;;;;9.20;8.90;;;0.00;99.90;;;;;;5064164;28;20265;-82
2023/04/06 02:48:01;;;;;;;9.00;8.80;;;0.00;99.90;;;;;;5067006;28;20230;-82
2023/04/06 02:50:29;;;;;;;9.30;9.00;;;0.00;99.90;;;;;;5067613;28;20214;-82
2023/04/06 02:52:59;;;;;;;8.90;8.70;;;0.00;99.90;;;;;;5067854;28;20241;-82
2023/04/06 02:55:27;;;;;;;8.90;8.70;;;0.00;99.90;;;;;;5067793;28;20241;-82
2023/04/06 02:57:59;;;;;;;8.77;8.57;;;-0.10;99.90;;;;;;5067568;28;20227;-82
2023/04/06 03:00:32;;;;;;;8.90;8.70;;;-0.30;99.90;;;;;;5068264;28;20227;-81
2023/04/06 03:03:00;;;;;;;9.00;8.80;;;-0.40;99.90;;;;;;5068946;28;20245;-81
2023/04/06 03:05:27;;;;;;;8.97;8.77;;;-0.40;99.90;;;;;;5067446;28;20239;-82
2023/04/06 03:07:56;;;;;;;8.87;8.67;;;-0.40;99.90;;;;;;5068220;28;20219;-81
2023/04/06 03:10:25;;;;;;;9.30;9.00;;;-0.40;99.90;;;;;;5067848;28;20238;-81
2023/04/06 03:12:56;;;;;;;9.40;9.10;;;-0.40;99.90;;;;;;5068186;28;20273;-81
2023/04/06 03:15:25;;;;;;;9.20;8.90;;;-0.50;99.90;;;;;;5072015;28;20238;-81
2023/04/06 03:18:02;;;;;;;9.30;9.00;;;-0.40;99.90;;;;;;5074808;28;20266;-82
2023/04/06 03:20:32;;;;;;;9.20;8.90;;;-0.40;99.90;;;;;;5069065;28;20277;-82
2023/04/06 03:23:02;;;;;;;9.30;9.00;;;-0.30;99.90;;;;;;5067946;28;20258;-82
2023/04/06 03:25:31;;;;;;;8.90;8.70;;;-0.30;99.90;;;;;;5066221;28;20233;-82
2023/04/06 03:28:01;;;;;;;9.07;8.80;;;-0.30;99.90;;;;;;5067537;28;20219;-82
2023/04/06 03:30:30;;;;;;;8.60;8.40;;;-0.30;99.90;;;;;;5066944;28;20222;-82
2023/04/06 03:33:02;;;;;;;9.30;9.00;;;-0.30;99.90;;;;;;5067023;28;20226;-82
2023/04/06 03:35:30;;;;;;;9.37;9.07;;;-0.40;99.90;;;;;;5066562;28;20235;-81
2023/04/06 03:37:58;;;;;;;9.37;9.07;;;-0.40;99.90;;;;;;5067289;28;20230;-82
2023/04/06 03:40:27;;;;;;;8.90;8.70;;;-0.40;99.90;;;;;;5066960;28;20258;-82
2023/04/06 03:42:58;;;;;;;9.60;9.30;;;-0.40;99.90;;;;;;5067036;28;20696;-82
2023/04/06 03:45:27;;;;;;;9.50;9.20;;;-0.40;99.90;;;;;;5066498;28;20235;-82
2023/04/06 03:47:56;;;;;;;9.50;9.20;;;-0.40;99.90;;;;;;5066500;28;20223;-82
2023/04/06 03:50:27;;;;;;;9.20;8.90;;;-0.40;99.90;;;;;;5067233;28;20218;-82
2023/04/06 03:52:55;;;;;;;9.00;8.80;;;-0.40;99.90;;;;;;5066745;28;20238;-82
2023/04/06 03:55:24;;;;;;;8.90;8.70;;;-0.40;99.90;;;;;;5067696;28;20234;-82
2023/04/06 03:57:56;;;;;;;8.80;8.60;;;-0.40;99.90;;;;;;5069082;28;20237;-82
2023/04/06 04:00:26;;;;;;;9.30;9.00;;;-0.40;99.90;;;;;;5065381;28;20234;-82
2023/04/06 04:02:56;;;;;;;9.43;9.13;;;-0.50;99.90;;;;;;5065669;28;20242;-82
2023/04/06 04:05:26;;;;;;;9.30;9.00;;;-0.50;99.90;;;;;;5065672;28;20246;-81
2023/04/06 04:07:54;;;;;;;9.40;9.10;;;-0.70;99.90;;;;;;5065175;28;20238;-82
2023/04/06 04:10:23;;;;;;;9.40;9.10;;;-0.80;99.90;;;;;;5065800;28;20234;-79
2023/04/06 04:12:52;;;;;;;9.50;9.20;;;-0.80;99.90;;;;;;5066476;28;20239;-79
2023/04/06 04:15:22;;;;;;;9.67;9.37;;;-0.80;99.90;;;;;;5066215;28;20250;-81
2023/04/06 04:17:51;;;;;;;9.80;9.50;;;-0.70;99.90;;;;;;5065545;28;20234;-80
2023/04/06 04:20:21;;;;;;;9.80;9.50;;;-0.70;99.90;;;;;;5065625;28;20258;-81
2023/04/06 04:22:53;;;;;;;10.00;9.70;;;-0.70;99.90;;;;;;5066181;28;20230;-81
2023/04/06 04:25:20;;;;;;;9.90;9.60;;;-0.70;99.90;;;;;;5065596;28;20238;-80
2023/04/06 04:27:49;;;;;;;10.13;9.83;;;-0.70;99.90;;;;;;5065055;28;20241;-81
2023/04/06 04:30:19;;;;;;;10.30;10.00;;;-0.70;99.90;;;;;;5064443;28;20238;-81
2023/04/06 04:32:47;;;;;;;10.60;10.30;;;-0.70;99.90;;;;;;5064144;28;20281;-81
2023/04/06 04:35:17;;;;;;;10.23;9.93;;;-0.70;99.90;;;;;;5064778;28;20291;-81
2023/04/06 04:37:47;;;;;;;10.77;10.47;;;-0.60;99.90;;;;;;5064474;28;20227;-82
2023/04/06 04:40:18;;;;;;;10.80;10.50;;;-0.70;99.90;;;;;;5064052;28;20227;-81
2023/04/06 04:42:46;;;;;;;11.20;10.90;;;-0.70;99.90;;;;;;5063908;28;20230;-80
2023/04/06 04:45:15;;;;;;;11.00;10.70;;;-0.60;99.90;;;;;;5063726;28;20250;-81
2023/04/06 04:47:43;;;;;;;10.80;10.50;;;-0.60;99.90;;;;;;5063801;28;20238;-81
2023/04/06 04:50:14;;;;;;;10.80;10.50;;;-0.60;99.90;;;;;;5064035;28;20246;-81
2023/04/06 04:52:43;;;;;;;10.63;10.33;;;-0.60;99.90;;;;;;5065525;28;20285;-81
2023/04/06 04:55:13;;;;;;;10.80;10.50;;;-0.60;99.90;;;;;;5064158;28;20235;-82
2023/04/06 04:57:52;;;;;;;11.10;10.80;;;-0.60;99.90;;;;;;5063643;28;20485;-83
2023/04/06 05:00:20;;;;;;;10.80;10.50;;;-0.50;99.90;;;;;;5064782;28;20245;-84
2023/04/06 05:02:50;;;;;;;11.10;10.80;;;-0.40;99.90;;;;;;5065140;28;20234;-84
2023/04/06 05:05:25;;;;;;;10.93;10.63;;;-0.30;99.90;;;;;;5069032;28;20235;-84
2023/04/06 05:07:54;;;;;;;11.20;10.90;;;-0.30;99.90;;;;;;5072295;28;20324;-83
2023/04/06 05:10:22;;;;;;;11.27;10.97;;;-0.30;99.90;;;;;;5071781;28;20252;-82
2023/04/06 05:12:51;;;;;;;10.93;10.63;;;-0.30;99.90;;;;;;5069414;28;20235;-82
2023/04/06 05:15:19;;;;;;;10.90;10.60;;;-0.30;99.90;;;;;;5068718;28;20325;-81
2023/04/06 05:17:47;;;;;;;10.87;10.57;;;-0.30;99.90;;;;;;5066722;28;20289;-82
2023/04/06 05:20:16;;;;;;;11.00;10.70;;;-0.30;99.90;;;;;;5066855;28;20231;-81
2023/04/06 05:22:45;;;;;;;11.40;11.07;;;-0.30;99.90;;;;;;5066139;28;20226;-82
2023/04/06 05:25:15;;;;;;;11.30;11.00;;;-0.30;99.90;;;;;;5065303;28;20242;-83
2023/04/06 05:27:44;;;;;;;11.10;10.80;;;-0.30;99.90;;;;;;5066843;28;20334;-82
2023/04/06 05:30:21;;;;;;;10.83;10.53;;;-0.30;99.90;;;;;;5072132;28;20226;-81
2023/04/06 05:32:52;;;;;;;10.90;10.60;;;-0.40;99.90;;;;;;5061482;28;20235;-81
2023/04/06 05:35:21;;;;;;;10.70;10.40;;;-0.30;99.90;;;;;;5049168;28;20239;-81
2023/04/06 05:37:52;;;;;;;10.90;10.60;;;-0.40;99.90;;;;;;5047080;28;20232;-83
2023/04/06 05:40:21;;;;;;;10.83;10.53;;;-0.40;99.90;;;;;;5050081;28;20227;-83
2023/04/06 05:42:51;;;;;;;10.80;10.50;;;-0.40;99.90;;;;;;5044737;28;20227;-83
2023/04/06 05:45:22;;;;;;;10.97;10.67;;;-0.30;99.90;;;;;;5046278;28;20243;-83
2023/04/06 05:47:49;;;;;;;11.00;10.70;;;-0.30;99.90;;;;;;5044501;28;20290;-82
2023/04/06 05:50:19;;;;;;;10.90;10.60;;;-0.30;99.90;;;;;;5044954;28;20260;-84
2023/04/06 05:52:48;;;;;;;10.90;10.60;;;-0.20;99.90;;;;;;5044780;28;20228;-82
2023/04/06 05:55:19;;;;;;;10.77;10.47;;;-0.10;99.90;;;;;;5045335;28;20274;-83
2023/04/06 05:57:48;;;;;;;10.60;10.30;;;0.00;99.90;;;;;;5045885;28;20227;-84
2023/04/06 06:00:19;;;;;;;10.73;10.43;;;0.10;99.90;;;;;;5043680;28;20298;-85
2023/04/06 06:02:50;;;;;;;10.60;10.30;;;0.10;99.90;;;;;;5044922;28;20325;-84
2023/04/06 06:05:18;;;;;;;10.50;10.20;;;0.10;99.90;;;;;;5045985;28;20293;-84
2023/04/06 06:07:46;;;;;;;10.47;10.17;;;0.20;99.90;;;;;;5045307;28;20242;-84
2023/04/06 06:10:15;;;;;;;10.60;10.30;;;0.30;99.90;;;;;;5044025;28;20231;-82
2023/04/06 06:12:45;;;;;;;10.63;10.33;;;0.40;99.90;;;;;;5043610;28;20263;-83
2023/04/06 06:15:15;;;;;;;10.40;10.10;;;0.40;99.90;;;;;;5047212;28;20244;-81
2023/04/06 06:17:45;;;;;;;10.53;10.23;;;0.40;99.90;;;;;;5047921;28;20255;-82
2023/04/06 06:20:16;;;;;;;10.63;10.33;;;0.50;99.90;;;;;;5049043;28;20230;-80
2023/04/06 06:22:44;;;;;;;10.90;10.60;;;0.50;99.90;;;;;;5066704;28;20241;-81
2023/04/06 06:25:12;;;;;;;10.70;10.40;;;0.60;99.90;;;;;;5064943;28;20253;-80
2023/04/06 06:27:40;;;;;;;10.60;10.30;;;0.70;99.90;;;;;;5064774;28;20235;-82
2023/04/06 06:30:12;;;;;;;10.80;10.50;;;0.80;99.90;;;;;;5063701;28;20322;-81
2023/04/06 06:32:41;;;;;;;10.80;10.50;;;0.90;99.90;;;;;;5063843;28;20246;-84
2023/04/06 06:35:10;;;;;;;10.83;10.53;;;1.00;99.90;;;;;;5064160;28;20298;-83
2023/04/06 06:37:51;;;;;;;10.70;10.40;;;1.10;99.90;;;;;;5064059;28;20296;-83
2023/04/06 06:40:28;;;;;;;11.20;10.90;;;1.20;99.90;;;;;;5064339;28;20306;-84
2023/04/06 06:42:56;;;;;;;10.77;10.47;;;1.30;99.90;;;;;;5063108;28;20226;-83
2023/04/06 06:45:25;;;;;;;10.47;10.17;;;1.40;99.90;;;;;;5062890;28;20230;-84
2023/04/06 06:47:53;;;;;;;10.80;10.50;;;1.60;99.90;;;;;;5064247;28;20231;-82
2023/04/06 06:50:24;;;;;;;10.80;10.50;;;1.70;99.90;;;;;;5066126;28;20234;-82
2023/04/06 06:52:58;;;;;;;10.57;10.27;;;1.80;99.90;;;;;;5068690;28;20722;-82
2023/04/06 06:55:26;;;;;;;10.43;10.13;;;1.90;99.90;;;;;;5065647;28;20250;-82
2023/04/06 06:57:54;;;;;;;10.60;10.30;;;2.10;99.90;;;;;;5067036;28;20242;-82
2023/04/06 07:00:22;;;;;;;10.70;10.40;;;2.20;99.90;;;;;;5066692;28;20227;-82
2023/04/06 07:02:51;;;;;;;10.60;10.30;;;2.30;99.90;;;;;;5066240;28;20226;-81
2023/04/06 07:05:20;;;;;;;10.40;10.10;;;2.40;99.90;;;;;;5064929;28;20261;-83
2023/04/06 07:07:50;;;;;;;10.60;10.30;;;2.50;99.90;;;;;;5065865;28;20226;-80
2023/04/06 07:10:30;;;;;;;10.33;10.03;;;2.60;99.90;;;;;;5061379;28;20219;-82
2023/04/06 07:12:58;;;;;;;9.70;9.40;;;2.70;99.90;;;;;;5057655;28;20235;-85
2023/04/06 07:15:27;;;;;;;10.03;9.73;;;2.80;99.90;;;;;;5065581;28;20285;-85
2023/04/06 07:17:56;;;;;;;9.80;9.50;;;2.90;99.90;;;;;;5068297;28;20258;-83
2023/04/06 07:20:27;;;;;;;9.60;9.30;;;3.00;99.90;;;;;;5064745;28;20306;-83
2023/04/06 07:22:55;;;;;;;9.70;9.40;;;3.10;99.90;;;;;;5064888;28;20250;-84
2023/04/06 07:25:31;;;;;;;9.93;9.63;;;3.30;99.90;;;;;;5070949;28;20230;-83
2023/04/06 07:28:05;;;;;;;10.20;9.90;;;3.40;99.90;;;;;;5063899;28;20222;-85
2023/04/06 07:30:33;;;;;;;10.10;9.80;;;3.60;99.90;;;;;;5064504;28;20219;-84
2023/04/06 07:33:02;;;;;;;10.00;9.70;;;3.70;99.90;;;;;;5065954;28;20222;-84
2023/04/06 07:35:31;;;;;;;10.00;9.70;;;3.90;99.90;;;;;;5068275;28;20235;-83
2023/04/06 07:38:01;;;;;;;10.27;9.97;;;4.10;99.90;;;;;;5071985;28;20231;-82
2023/04/06 07:40:32;;;;;;;10.57;10.27;;;4.20;99.90;;;;;;5080414;28;20211;-81
2023/04/06 07:43:01;;;;;;;10.40;10.10;;;4.30;99.90;;;;;;5080436;27;20237;-83
2023/04/06 07:45:29;;;;;;;10.67;10.37;;;4.40;99.90;;;;;;5081885;27;20242;-84
2023/04/06 07:48:00;;;;;;;10.67;10.37;;;4.60;99.90;;;;;;5081496;27;20265;-84
2023/04/06 07:50:29;;;;;;;10.60;10.30;;;4.60;99.90;;;;;;5082144;27;20238;-83
2023/04/06 07:52:59;;;;;;;10.43;10.13;;;4.70;99.90;;;;;;5082544;27;20199;-84
2023/04/06 07:55:31;;;;;;;10.50;10.20;;;4.70;99.90;;;;;;5081838;27;20249;-85
2023/04/06 07:57:59;;;;;;;10.50;10.20;;;4.80;99.90;;;;;;5081159;27;20227;-86
2023/04/06 08:00:29;;;;;;;10.20;9.90;;;4.90;99.90;;;;;;5080878;27;20226;-86
2023/04/06 08:02:58;;;;;;;10.20;9.90;;;5.10;99.90;;;;;;5082558;27;20219;-86
2023/04/06 08:05:27;;;;;;;10.50;10.20;;;5.30;99.90;;;;;;5081691;27;20234;-85
2023/04/06 08:07:56;;;;;;;10.50;10.20;;;5.60;99.90;;;;;;5082324;27;20238;-86
2023/04/06 08:10:27;;;;;;;10.27;9.97;;;5.70;99.90;;;;;;5082760;27;20195;-86
2023/04/06 08:12:58;;;;;;;10.40;10.10;;;5.80;99.90;;;;;;5082401;27;20230;-85
2023/04/06 08:15:26;;;;;;;10.10;9.80;;;6.00;99.90;;;;;;5082115;27;20246;-86
2023/04/06 08:17:56;;;;;;;10.60;10.30;;;6.10;99.90;;;;;;5080795;27;20211;-83
2023/04/06 08:20:24;;;;;;;10.30;10.00;;;6.30;99.90;;;;;;5082215;28;20215;-84
2023/04/06 08:22:53;;;;;;;10.27;9.97;;;6.30;99.90;;;;;;5079532;28;20250;-84
2023/04/06 08:25:23;;;;;;;10.40;10.10;;;6.50;99.90;;;;;;5070823;28;20270;-84
2023/04/06 08:27:52;;;;;;;10.47;10.17;;;6.60;99.90;;;;;;5076388;28;20261;-83
2023/04/06 08:30:32;;;;;;;10.40;10.10;;;6.70;99.90;;;;;;5069401;28;20265;-84
2023/04/06 08:32:59;;;;;;;10.37;10.07;;;6.90;99.90;;;;;;5072106;28;20239;-83
2023/04/06 08:35:29;;;;;;;10.60;10.30;;;7.00;99.90;;;;;;5070330;28;20238;-84
2023/04/06 08:37:58;;;;;;;10.33;10.03;;;7.20;99.90;;;;;;5070204;28;20239;-83
2023/04/06 08:40:27;;;;;;;10.00;9.70;;;7.40;99.90;;;;;;5069143;28;20358;-83
2023/04/06 08:42:57;;;;;;;10.40;10.10;;;7.60;99.90;;;;;;5068701;28;20223;-85
2023/04/06 08:45:36;;;;;;;9.90;9.60;;;7.70;99.90;;;;;;5067465;28;20265;-84
2023/04/06 08:48:06;;;;;;;10.23;9.93;;;7.80;99.90;;;;;;5068562;28;20243;-83
2023/04/06 08:50:35;;;;;;;10.20;9.90;;;7.90;99.90;;;;;;5068661;28;20223;-83
2023/04/06 08:53:03;;;;;;;10.20;9.90;;;8.10;99.90;;;;;;5066953;28;20322;-83
2023/04/06 08:55:33;;;;;;;10.10;9.80;;;8.20;99.90;;;;;;5065862;28;20277;-83
2023/04/06 08:58:03;;;;;;;10.53;10.23;;;8.40;99.90;;;;;;5065609;28;20215;-83
2023/04/06 09:00:41;;;;;;;10.60;10.30;;;8.50;99.90;;;;;;5065307;28;20239;-83
2023/04/06 09:03:10;;;;;;;10.40;10.10;;;8.70;99.90;;;;;;5065731;28;20238;-83
2023/04/06 09:05:39;;;;;;;10.60;10.30;;;8.90;99.90;;;;;;5066320;28;20235;-83
2023/04/06 09:08:10;;;;;;;10.27;9.97;;;9.10;99.90;;;;;;5065297;28;20230;-83
2023/04/06 09:10:41;;;;;;;9.97;9.67;;;9.20;99.90;;;;;;5065504;28;20222;-83
2023/04/06 09:13:10;;;;;;;10.20;9.90;;;9.40;99.90;;;;;;5070834;27;20265;-81
2023/04/06 09:15:40;;;;;;;10.13;9.83;;;9.40;99.90;;;;;;5064497;28;20223;-83
2023/04/06 09:18:08;;;;;;;10.30;10.00;;;9.60;99.90;;;;;;5063236;28;20266;-83
2023/04/06 09:20:36;;;;;;;10.17;9.87;;;9.70;99.90;;;;;;5063875;28;20249;-82
2023/04/06 09:23:06;;;;;;;10.40;10.10;;;9.70;99.90;;;;;;5064723;28;20251;-83
2023/04/06 09:25:35;;;;;;;10.57;10.27;;;9.30;99.90;;;;;;5067251;28;20235;-82
2023/04/06 09:28:06;;;;;;;10.70;10.40;;;9.30;99.90;;;;;;5065979;28;20262;-84
2023/04/06 09:30:35;;;;;;;10.50;10.20;;;9.60;99.90;;;;;;5064532;28;20227;-83
2023/04/06 09:33:06;;;;;;;10.33;10.03;;;10.00;99.90;;;;;;5064255;28;20239;-83
2023/04/06 09:35:34;;;;;;;10.53;10.23;;;10.20;99.90;;;;;;5063196;28;20234;-83
2023/04/06 09:38:12;;;;;;;10.53;10.23;;;10.20;99.90;;;;;;5063746;28;20241;-83
2023/04/06 09:40:50;;;;;;;10.30;10.00;;;10.30;99.90;;;;;;5064066;28;20234;-83
2023/04/06 09:43:28;;;;;;;10.03;9.73;;;10.50;99.90;;;;;;5063817;28;20231;-84
2023/04/06 09:45:57;;;;;;;9.90;9.60;;;10.60;99.90;;;;;;5063628;28;20238;-83
2023/04/06 09:48:36;;;;;;;10.40;10.10;;;10.90;99.90;;;;;;5063232;28;20257;-83
2023/04/06 09:51:06;;;;;;;10.17;9.87;;;10.60;99.90;;;;;;5063639;28;20270;-83
2023/04/06 09:53:38;;;;;;;10.10;9.80;;;10.50;99.90;;;;;;5063611;28;20254;-83
2023/04/06 09:56:14;;;;;;;10.00;9.70;;;10.30;99.90;;;;;;5063142;28;20262;-83
2023/04/06 09:58:44;;;;;;;10.20;9.90;;;10.50;99.90;;;;;;5072289;28;20298;-83
2023/04/06 10:01:18;;;;;;;10.30;10.00;;;11.00;99.90;;;;;;5075584;28;20254;-82
2023/04/06 10:04:01;;;;;;;10.30;10.00;;;11.30;99.90;;;;;;5069854;28;20242;-83
2023/04/06 10:06:38;;;;;;;10.33;10.03;;;11.40;99.90;;;;;;5067466;28;20726;-83
2023/04/06 10:09:09;;;;;;;10.20;9.90;;;11.70;99.90;;;;;;5066151;28;20242;-83
2023/04/06 10:11:37;;;;;;;10.00;9.70;;;12.10;99.90;;;;;;5066205;28;20231;-83
2023/04/06 10:14:07;;;;;;;10.27;9.97;;;12.40;99.90;;;;;;5068756;28;20242;-83
2023/04/06 10:16:37;;;;;;;10.23;9.93;;;12.30;99.90;;;;;;5068655;28;20241;-83
2023/04/06 10:19:17;;;;;;;10.43;10.13;;;12.10;99.90;;;;;;5070516;28;20214;-83
2023/04/06 10:21:55;;;;;;;10.20;9.90;;;12.10;99.90;;;;;;5074514;28;20229;-83
2023/04/06 10:24:22;;;;;;;10.20;9.90;;;12.20;99.90;;;;;;5068882;28;20246;-83
2023/04/06 10:27:01;;;;;;;10.43;10.13;;;12.00;99.90;;;;;;5069538;28;20230;-83
2023/04/06 10:29:30;;;;;;;10.70;10.40;;;11.80;99.90;;;;;;5067984;28;20223;-81
2023/04/06 10:31:59;;;;;;;10.53;10.23;;;12.10;99.90;;;;;;5067330;28;20243;-83
2023/04/06 10:34:37;;;;;;;10.60;10.30;;;12.20;99.90;;;;;;5067828;28;20243;-83
2023/04/06 10:37:15;;;;;;;10.60;10.30;;;12.20;99.90;;;;;;5067178;28;20325;-82
2023/04/06 10:39:54;;;;;;;10.40;10.10;;;12.60;99.90;;;;;;5066476;28;20245;-81
2023/04/06 10:42:26;;;;;;;10.47;10.17;;;12.90;99.90;;;;;;5065521;28;20230;-83
2023/04/06 16:01:29;;;;;;;9.70;9.40;;;18.80;93.80;;;;;;4991733;28;20215;-86
2023/04/06 16:23:38;;;;;;;10.23;9.93;;;19.30;91.60;;;;;;4853660;29;20234;-85
2023/04/06 16:49:27;;;;;;;10.18;9.88;;;17.50;93.20;;;;;;5070105;28;20234;-84
2023/04/06 16:52:01;;;;;;;10.27;9.98;;;17.40;93.00;;;;;;5070090;28;20285;-84
2023/04/06 16:54:29;;;;;;;10.02;9.73;;;17.10;92.70;;;;;;5068030;28;20219;-83
2023/04/06 16:56:57;;;;;;;10.20;9.90;;;17.10;93.20;;;;;;5067856;28;20317;-84
2023/04/06 16:59:26;;;;;;;10.10;9.80;;;16.70;93.30;;;;;;5068630;28;20306;-84
2023/04/06 17:01:56;;;;;;;10.32;10.02;;;16.60;93.30;;;;;;5068300;28;20231;-84
2023/04/06 17:04:25;;;;;;;10.00;9.70;;;16.50;93.50;;;;;;5069068;28;20238;-84
2023/04/06 17:07:09;;;;;;;10.10;9.80;;;16.20;93.20;;;;;;5068624;28;20306;-84
2023/04/06 17:12:20;;;;;;;10.00;9.70;;;15.10;94.50;;;;;;5069085;28;20234;-84
2023/04/06 17:14:51;;;;;;;9.82;9.52;;;15.10;95.30;;;;;;5069141;28;20253;-83
2023/04/06 17:17:20;;;;;;;10.00;9.70;;;15.00;94.90;;;;;;5069936;28;20231;-84
2023/04/06 17:19:49;;;;;;;9.80;9.50;;;14.90;95.40;;;;;;5068767;28;20260;-83
2023/04/06 17:22:27;;;;;;;10.10;9.80;;;14.90;95.40;;;;;;5069666;28;20286;-84
2023/04/06 17:24:57;;;;;;;10.20;9.90;;;14.70;95.10;;;;;;5069447;28;20218;-84
2023/04/06 17:27:26;;;;;;;10.02;9.73;;;14.70;95.30;;;;;;5070209;28;20230;-84
2023/04/06 17:29:55;;;;;;;10.00;9.70;;;14.60;96.10;;;;;;5068625;28;20251;-84
2023/04/06 17:32:26;;;;;;;9.97;9.67;;;14.50;96.00;;;;;;5067268;28;20230;-84
2023/04/06 17:34:54;;;;;;;10.07;9.77;;;14.30;96.10;;;;;;5068017;28;20245;-83
2023/04/06 17:37:26;;;;;;;10.37;10.07;;;14.20;96.00;;;;;;5071424;28;20231;-84
2023/04/06 17:39:53;;;;;;;10.07;9.77;;;14.10;96.90;;;;;;5068798;28;20298;-84
2023/04/06 17:42:23;;;;;;;10.20;9.90;;;13.90;96.70;;;;;;5067664;28;20237;-84
2023/04/06 17:44:52;;;;;;;10.13;9.83;;;13.70;96.80;;;;;;5066231;28;20231;-84
2023/04/06 17:47:21;;;;;;;10.20;9.90;;;13.30;96.70;;;;;;5065811;28;20231;-84
2023/04/06 17:49:51;;;;;;;10.20;9.90;;;13.10;97.40;;;;;;5066838;28;20310;-84
2023/04/06 17:52:20;;;;;;;10.10;9.80;;;13.00;98.10;;;;;;5066078;28;20233;-84
2023/04/06 17:54:55;;;;;;;9.70;9.40;;;13.00;98.30;;;;;;5067479;28;20222;-83
2023/04/06 17:57:23;;;;;;;9.70;9.40;;;12.90;98.20;;;;;;5066613;28;20231;-84
2023/04/06 17:59:52;;;;;;;9.60;9.30;;;12.80;98.40;;;;;;5067111;28;20239;-83
2023/04/06 18:02:20;;;;;;;9.33;9.03;;;12.70;99.00;;;;;;5066980;28;20273;-83
2023/04/06 18:04:51;;;;;;;9.37;9.07;;;12.60;98.70;;;;;;5067281;28;20242;-83
2023/04/06 18:07:18;;;;;;;10.00;9.70;;;12.50;98.80;;;;;;5068024;28;20270;-83
2023/04/06 18:09:48;;;;;;;9.80;9.50;;;12.50;99.10;;;;;;5072987;28;20230;-83
2023/04/06 18:12:26;;;;;;;9.93;9.63;;;12.40;99.50;;;;;;5067050;28;20333;-84
2023/04/06 18:14:56;;;;;;;9.70;9.40;;;12.30;99.90;;;;;;5066113;28;20254;-84
2023/04/06 18:17:25;;;;;;;9.17;8.87;;;12.10;99.90;;;;;;5066386;28;20377;-84
2023/04/06 18:19:57;;;;;;;9.43;9.13;;;12.00;99.90;;;;;;5067415;28;20231;-85
2023/04/06 18:22:24;;;;;;;9.37;9.07;;;11.90;99.90;;;;;;5068168;28;20271;-83
2023/04/06 18:24:53;;;;;;;9.37;9.07;;;11.70;99.90;;;;;;5066351;28;20230;-83
2023/04/06 18:27:31;;;;;;;9.43;9.13;;;11.60;99.90;;;;;;5066309;28;20286;-83
2023/04/06 18:30:01;;;;;;;9.43;9.13;;;11.40;99.90;;;;;;5065746;28;20330;-83
2023/04/06 18:32:30;;;;;;;9.67;9.37;;;11.30;99.90;;;;;;5066562;28;20226;-84
2023/04/06 18:35:00;;;;;;;9.80;9.50;;;11.20;99.90;;;;;;5065340;28;20235;-84
2023/04/06 18:37:29;;;;;;;9.37;9.07;;;11.10;99.90;;;;;;5065471;28;20719;-84
2023/04/06 18:39:58;;;;;;;9.50;9.20;;;11.00;99.90;;;;;;5067227;28;20222;-84
2023/04/06 18:42:37;;;;;;;9.43;9.13;;;10.80;99.90;;;;;;5065161;28;20238;-84
2023/04/06 18:45:06;;;;;;;9.50;9.20;;;10.70;99.90;;;;;;5065648;28;20223;-84
2023/04/06 18:47:36;;;;;;;9.53;9.23;;;10.60;99.90;;;;;;5066860;28;20239;-84
2023/04/06 18:50:06;;;;;;;9.50;9.20;;;10.50;99.90;;;;;;5070508;28;20294;-83
2023/04/06 18:52:35;;;;;;;9.70;9.40;;;10.40;99.90;;;;;;5069620;28;20247;-83
2023/04/06 18:55:04;;;;;;;9.57;9.27;;;10.30;99.90;;;;;;5068408;28;20242;-83
2023/04/06 18:57:43;;;;;;;9.63;9.33;;;10.10;99.90;;;;;;5072150;28;20291;-83
2023/04/06 19:00:13;;;;;;;9.63;9.33;;;10.00;99.90;;;;;;5073983;28;20322;-83